Terminal Aerodrome Forecast
Issued by NWS

Home | Current Version | Previous Version | Graphics & Text | Print | Product List | Glossary On
Versions: 1 2 3 4 5 6 7 8 9 10 11 12 13 14 15 16 17 18 19 20 21 22 23 24 25 26 27 28
000
FTUS43 KABR 210313 AAC
TAFPIR
TAF AMD
KPIR 210313Z 2103/2124 23005KT 1/2SM FZFG VV002
     FM210600 00000KT 1/4SM FZFG VV002
     FM211300 00000KT 1/2SM FZFG OVC003
     FM211600 VRB03KT 3SM BR OVC008
     FM211700 28004KT 5SM BR OVC020
     FM211800 29006KT P6SM OVC035=

USA.gov is the U.S. government's official web portal to all federal, state and local government web resources and services.